Time;durP1;ratioP1;P1;durP2;ratioP2;P2;SDS_P1;SDS_P2;PMS_P1;PMS_P2;Temp;Humidity;BMP_temperature;BMP_pressure;BME280_temperature;BME280_humidity;BME280_pressure;Samples;Min_cycle;Max_cycle;Signal;HPM_P1;HPM_P2
2022/11/20 00:01:41;;;;;;;8.27;5.60;;;1.50;89.60;;;;;;5057191;28;20171;-88
2022/11/20 00:04:07;;;;;;;13.20;5.90;;;1.50;89.60;;;;;;5055850;28;20574;-89
2022/11/20 00:06:33;;;;;;;7.00;5.57;;;1.50;89.70;;;;;;5055834;28;20200;-89
2022/11/20 00:09:02;;;;;;;8.37;5.80;;;1.50;89.80;;;;;;5056492;28;20241;-90
2022/11/20 00:11:29;;;;;;;6.83;5.33;;;1.50;89.80;;;;;;5055971;28;20175;-88
2022/11/20 00:13:58;;;;;;;8.50;5.80;;;1.50;89.80;;;;;;5055728;28;20642;-89
2022/11/20 00:16:25;;;;;;;7.10;5.70;;;1.50;89.80;;;;;;5055040;28;20209;-89
2022/11/20 00:18:51;;;;;;;7.53;5.37;;;1.50;89.90;;;;;;5055384;28;20623;-88
2022/11/20 00:21:20;;;;;;;8.20;5.30;;;1.60;89.90;;;;;;5055376;28;20187;-90
2022/11/20 00:23:46;;;;;;;6.57;5.40;;;1.60;90.00;;;;;;5055611;28;20700;-90
2022/11/20 00:26:17;;;;;;;7.33;5.57;;;1.60;90.00;;;;;;5054739;28;20203;-90
2022/11/20 00:28:44;;;;;;;8.60;5.40;;;1.60;90.00;;;;;;5054922;28;20179;-90
2022/11/20 00:31:12;;;;;;;7.60;6.50;;;1.60;90.00;;;;;;5054846;28;20188;-90
2022/11/20 00:33:38;;;;;;;8.03;5.37;;;1.70;90.00;;;;;;5054819;28;20642;-90
2022/11/20 00:36:06;;;;;;;5.40;4.87;;;1.60;90.00;;;;;;5054925;28;20214;-90
2022/11/20 00:38:35;;;;;;;8.57;4.80;;;1.60;90.00;;;;;;5054830;28;20183;-89
2022/11/20 00:41:02;;;;;;;6.50;5.50;;;1.60;90.00;;;;;;5054950;28;20179;-91
2022/11/20 00:43:28;;;;;;;9.13;5.67;;;1.60;90.00;;;;;;5054739;28;20191;-90
2022/11/20 00:46:01;;;;;;;7.20;5.27;;;1.60;90.00;;;;;;5054679;28;20191;-90
2022/11/20 00:48:27;;;;;;;6.63;5.27;;;1.50;90.10;;;;;;5055017;28;20172;-90
2022/11/20 00:50:53;;;;;;;6.10;5.33;;;1.60;90.10;;;;;;5055948;28;20190;-90
2022/11/20 00:53:20;;;;;;;6.57;5.27;;;1.60;90.20;;;;;;5055834;28;20183;-90
2022/11/20 00:56:00;;;;;;;5.83;5.23;;;1.60;90.20;;;;;;5054984;28;20227;-90
2022/11/20 00:58:31;;;;;;;6.87;5.30;;;1.60;90.20;;;;;;5055773;28;20175;-89
2022/11/20 01:01:24;;;;;;;7.93;5.20;;;1.60;90.20;;;;;;5056222;28;20175;-89
2022/11/20 01:03:51;;;;;;;6.47;5.40;;;1.60;90.10;;;;;;5053496;28;20219;-89
2022/11/20 01:06:35;;;;;;;9.77;5.13;;;1.60;90.10;;;;;;5056544;28;20223;-89
2022/11/20 01:09:04;;;;;;;10.80;5.53;;;1.60;90.10;;;;;;5056665;28;20186;-89
2022/11/20 01:11:33;;;;;;;6.57;5.43;;;1.60;90.10;;;;;;5056264;28;20179;-89
2022/11/20 01:14:01;;;;;;;7.30;5.13;;;1.60;90.10;;;;;;5057036;28;20592;-89
2022/11/20 01:16:42;;;;;;;7.50;5.63;;;1.60;90.10;;;;;;5055973;28;20199;-89
2022/11/20 01:19:11;;;;;;;6.17;5.00;;;1.60;90.00;;;;;;5054908;28;20176;-89
2022/11/20 01:21:39;;;;;;;7.27;5.03;;;1.60;90.00;;;;;;5054794;28;20737;-91
2022/11/20 01:24:10;;;;;;;9.23;5.57;;;1.60;90.10;;;;;;5056179;28;20212;-89
2022/11/20 01:26:37;;;;;;;6.53;5.87;;;1.60;90.20;;;;;;5056501;28;20220;-89
2022/11/20 01:29:04;;;;;;;7.73;5.47;;;1.50;90.20;;;;;;5055126;28;20183;-90
2022/11/20 01:31:32;;;;;;;8.90;5.43;;;1.50;90.40;;;;;;5054623;28;20201;-90
2022/11/20 01:34:01;;;;;;;6.23;5.40;;;1.50;90.40;;;;;;5054195;28;20200;-90
2022/11/20 01:36:29;;;;;;;5.67;5.17;;;1.60;90.50;;;;;;5054658;28;20204;-91
2022/11/20 01:38:57;;;;;;;5.83;5.23;;;1.50;90.50;;;;;;5055211;28;20249;-90
2022/11/20 01:44:11;;;;;;;9.53;5.67;;;1.60;90.50;;;;;;5056416;28;20574;-89
2022/11/20 01:46:39;;;;;;;11.53;5.67;;;1.60;90.50;;;;;;5054126;28;20196;-89
2022/11/20 01:49:18;;;;;;;9.40;5.40;;;1.60;90.50;;;;;;5054425;28;20187;-89
2022/11/20 01:51:50;;;;;;;9.73;5.57;;;1.60;90.50;;;;;;5054627;28;20202;-89
2022/11/20 01:54:21;;;;;;;6.47;5.07;;;1.50;90.50;;;;;;5055558;28;20206;-89
2022/11/20 01:56:50;;;;;;;6.37;5.50;;;1.50;90.50;;;;;;5055845;28;20175;-89
2022/11/20 01:59:18;;;;;;;6.97;5.60;;;1.50;90.50;;;;;;5054399;28;20298;-89
2022/11/20 02:01:44;;;;;;;7.90;5.40;;;1.50;90.50;;;;;;5054259;28;20191;-88
2022/11/20 02:04:10;;;;;;;7.27;5.77;;;1.50;90.50;;;;;;5054210;28;20200;-89
2022/11/20 02:06:57;;;;;;;8.80;5.77;;;1.50;90.60;;;;;;5054428;28;20745;-89
2022/11/20 02:09:23;;;;;;;6.07;5.37;;;1.50;90.60;;;;;;5054394;28;20204;-89
2022/11/20 02:11:49;;;;;;;7.00;6.30;;;1.50;90.60;;;;;;5054140;28;20176;-89
2022/11/20 02:14:14;;;;;;;9.90;5.73;;;1.50;90.50;;;;;;5053915;28;20176;-89
2022/11/20 02:16:45;;;;;;;6.90;4.73;;;1.50;90.50;;;;;;5053769;28;20207;-90
2022/11/20 02:19:21;;;;;;;6.57;5.33;;;1.50;90.50;;;;;;5054550;28;20357;-89
2022/11/20 02:22:08;;;;;;;7.67;5.50;;;1.50;90.50;;;;;;5054036;28;20206;-89
2022/11/20 02:24:34;;;;;;;10.53;6.03;;;1.50;90.50;;;;;;5053551;28;20260;-89
2022/11/20 02:27:08;;;;;;;10.03;5.63;;;1.50;90.40;;;;;;5054085;28;20688;-89
2022/11/20 02:29:40;;;;;;;6.17;5.30;;;1.50;90.40;;;;;;5053710;28;20167;-89
2022/11/20 02:32:06;;;;;;;6.33;5.30;;;1.50;90.40;;;;;;5053779;28;20613;-90
2022/11/20 02:34:32;;;;;;;7.47;5.93;;;1.60;90.40;;;;;;5053610;28;20235;-89
2022/11/20 02:36:59;;;;;;;13.03;5.37;;;1.60;90.40;;;;;;5053326;28;20212;-89
2022/11/20 02:39:27;;;;;;;10.17;4.80;;;1.60;90.40;;;;;;5053960;28;20266;-90
2022/11/20 02:41:56;;;;;;;5.97;5.13;;;1.50;90.30;;;;;;5053701;28;20176;-90
2022/11/20 02:44:22;;;;;;;6.90;4.97;;;1.50;90.30;;;;;;5054298;28;20274;-89
2022/11/20 02:46:48;;;;;;;7.00;5.67;;;1.50;90.40;;;;;;5053720;28;20620;-89
2022/11/20 02:49:13;;;;;;;6.13;5.13;;;1.50;90.40;;;;;;5053434;28;20180;-90
2022/11/20 02:51:39;;;;;;;10.67;5.63;;;1.50;90.40;;;;;;5054583;28;20228;-89
2022/11/20 02:54:04;;;;;;;6.47;5.50;;;1.50;90.40;;;;;;5053264;28;20184;-90
2022/11/20 02:56:30;;;;;;;8.30;5.47;;;1.50;90.40;;;;;;5053421;28;20715;-89
2022/11/20 02:58:56;;;;;;;12.40;6.00;;;1.50;90.50;;;;;;5053162;28;20186;-89
2022/11/20 03:01:21;;;;;;;5.73;4.97;;;1.50;90.50;;;;;;5053036;28;20176;-89
2022/11/20 03:03:48;;;;;;;11.87;5.43;;;1.50;90.50;;;;;;5053729;28;20211;-89
2022/11/20 03:06:15;;;;;;;8.20;4.97;;;1.40;90.50;;;;;;5053095;28;20234;-89
2022/11/20 03:08:40;;;;;;;6.93;5.93;;;1.40;90.60;;;;;;5054244;28;20637;-89
2022/11/20 03:11:08;;;;;;;8.63;5.10;;;1.40;90.60;;;;;;5053363;28;20203;-89
2022/11/20 03:13:34;;;;;;;8.63;5.60;;;1.40;90.60;;;;;;5054002;28;20187;-89
2022/11/20 03:16:11;;;;;;;7.57;5.70;;;1.30;90.60;;;;;;5053048;28;20218;-89
2022/11/20 03:18:38;;;;;;;7.37;5.80;;;1.40;90.60;;;;;;5052751;28;20638;-89
2022/11/20 03:21:04;;;;;;;7.87;4.80;;;1.30;90.70;;;;;;5054480;28;20617;-89
2022/11/20 03:23:31;;;;;;;7.67;5.77;;;1.30;90.60;;;;;;5054335;28;20168;-89
2022/11/20 03:26:14;;;;;;;8.47;6.23;;;1.30;90.60;;;;;;5053528;28;20199;-89
2022/11/20 03:28:40;;;;;;;6.73;5.40;;;1.20;90.70;;;;;;5053029;28;20579;-89
2022/11/20 03:31:11;;;;;;;7.27;5.60;;;1.30;90.70;;;;;;5054213;28;20172;-89
2022/11/20 03:33:37;;;;;;;5.97;5.37;;;1.30;90.70;;;;;;5053989;28;20215;-89
2022/11/20 03:36:05;;;;;;;6.53;5.83;;;1.20;90.70;;;;;;5052974;28;20207;-89
2022/11/20 03:38:31;;;;;;;7.70;5.53;;;1.20;90.70;;;;;;5052895;28;20205;-89
2022/11/20 03:41:05;;;;;;;5.67;5.07;;;1.20;90.70;;;;;;5053745;28;20209;-89
2022/11/20 03:43:31;;;;;;;11.37;5.60;;;1.20;90.60;;;;;;5052686;28;20184;-89
2022/11/20 03:45:57;;;;;;;5.80;5.27;;;1.20;90.70;;;;;;5052585;28;20202;-89
2022/11/20 03:48:22;;;;;;;6.80;5.30;;;1.20;90.60;;;;;;5052761;28;20201;-90
2022/11/20 03:50:48;;;;;;;8.57;5.53;;;1.20;90.70;;;;;;5052928;28;20179;-90
2022/11/20 03:53:14;;;;;;;8.47;5.70;;;1.20;90.70;;;;;;5052941;28;20182;-89
2022/11/20 03:55:40;;;;;;;6.77;5.57;;;1.20;90.70;;;;;;5053852;28;20551;-89
2022/11/20 03:58:05;;;;;;;7.63;5.90;;;1.20;90.70;;;;;;5052594;28;20229;-89
2022/11/20 04:00:31;;;;;;;7.63;6.00;;;1.20;90.70;;;;;;5052606;28;20183;-89
2022/11/20 04:03:01;;;;;;;6.60;5.23;;;1.20;90.80;;;;;;5053049;28;20241;-89
2022/11/20 04:05:26;;;;;;;6.23;5.63;;;1.20;90.80;;;;;;5053434;28;20219;-89
2022/11/20 04:07:52;;;;;;;9.43;6.13;;;1.30;90.80;;;;;;5053737;28;20241;-89
2022/11/20 04:10:18;;;;;;;5.73;5.23;;;1.30;90.80;;;;;;5053011;28;20183;-89
2022/11/20 04:12:43;;;;;;;7.10;5.33;;;1.30;90.80;;;;;;5052832;28;20259;-89
2022/11/20 04:15:09;;;;;;;8.37;5.20;;;1.30;90.80;;;;;;5053384;28;20207;-89
2022/11/20 04:17:35;;;;;;;8.07;5.40;;;1.30;90.80;;;;;;5053122;28;20183;-89
2022/11/20 04:20:01;;;;;;;6.03;5.03;;;1.30;90.70;;;;;;5052460;28;20183;-89
2022/11/20 04:22:27;;;;;;;9.70;5.00;;;1.30;90.70;;;;;;5052599;28;20208;-90
2022/11/20 04:24:52;;;;;;;7.40;5.47;;;1.30;90.60;;;;;;5053324;28;20218;-89
2022/11/20 04:27:18;;;;;;;5.83;5.03;;;1.20;90.60;;;;;;5052534;28;20590;-89
2022/11/20 04:29:43;;;;;;;7.20;5.73;;;1.20;90.70;;;;;;5052947;28;20176;-90
2022/11/20 04:32:09;;;;;;;7.43;5.53;;;1.20;90.80;;;;;;5056353;28;20188;-89
2022/11/20 04:34:35;;;;;;;7.97;5.43;;;1.20;90.80;;;;;;5056005;28;20539;-89
2022/11/20 04:37:01;;;;;;;6.63;4.60;;;1.30;90.90;;;;;;5057023;28;20260;-89
2022/11/20 04:39:26;;;;;;;6.73;5.07;;;1.20;90.70;;;;;;5056159;28;20175;-89
2022/11/20 04:44:36;;;;;;;6.33;5.30;;;1.10;90.80;;;;;;5057133;28;20219;-89
2022/11/20 04:47:01;;;;;;;7.47;6.17;;;1.10;90.80;;;;;;5055805;28;20179;-89
2022/11/20 04:49:27;;;;;;;12.33;5.43;;;1.00;90.90;;;;;;5056096;28;20195;-89
2022/11/20 04:51:55;;;;;;;7.00;5.80;;;1.10;91.00;;;;;;5056105;28;20613;-89
2022/11/20 04:54:21;;;;;;;5.93;5.40;;;1.00;90.90;;;;;;5055937;28;20558;-89
2022/11/20 04:56:50;;;;;;;8.60;6.07;;;1.00;90.90;;;;;;5055501;28;20176;-89
2022/11/20 04:59:16;;;;;;;5.90;5.30;;;0.90;90.90;;;;;;5055669;28;20228;-89
2022/11/20 05:01:41;;;;;;;8.20;5.43;;;0.90;91.00;;;;;;5055405;28;20172;-89
2022/11/20 05:04:07;;;;;;;10.13;5.97;;;0.90;91.00;;;;;;5055461;28;20215;-89
2022/11/20 05:06:32;;;;;;;8.33;6.00;;;0.90;91.10;;;;;;5055296;28;20227;-89
2022/11/20 05:08:58;;;;;;;6.23;5.17;;;0.90;91.10;;;;;;5055415;28;20179;-89
2022/11/20 05:11:24;;;;;;;5.80;5.20;;;1.00;91.20;;;;;;5055241;28;20225;-89
2022/11/20 05:13:51;;;;;;;6.97;5.60;;;1.00;91.20;;;;;;5055377;28;20278;-89
2022/11/20 05:16:19;;;;;;;6.70;5.73;;;1.00;91.10;;;;;;5055459;28;20203;-89
2022/11/20 05:18:45;;;;;;;8.70;5.57;;;0.90;91.10;;;;;;5055233;28;20189;-88
2022/11/20 05:21:12;;;;;;;7.50;5.93;;;0.90;91.10;;;;;;5054877;28;20216;-88
2022/11/20 05:23:38;;;;;;;8.23;5.67;;;0.90;91.10;;;;;;5055158;28;20653;-89
2022/11/20 05:26:04;;;;;;;10.13;6.60;;;0.90;91.10;;;;;;5055026;28;20213;-90
2022/11/20 05:28:31;;;;;;;7.53;5.70;;;0.90;91.10;;;;;;5055691;28;20172;-89
2022/11/20 05:31:04;;;;;;;7.83;5.73;;;0.90;91.10;;;;;;5055490;28;20200;-89
2022/11/20 05:33:30;;;;;;;6.30;5.57;;;0.80;91.00;;;;;;5056461;28;20183;-89
2022/11/20 05:35:58;;;;;;;9.00;6.07;;;0.80;91.10;;;;;;5054935;28;20197;-89
2022/11/20 05:38:24;;;;;;;11.83;6.40;;;0.80;91.20;;;;;;5054830;28;20178;-89
2022/11/20 05:40:49;;;;;;;7.50;5.50;;;0.80;91.30;;;;;;5054747;28;20227;-89
2022/11/20 05:43:15;;;;;;;9.73;4.83;;;0.80;91.30;;;;;;5054956;28;20195;-89
2022/11/20 05:45:41;;;;;;;6.20;5.43;;;0.80;91.30;;;;;;5055111;28;20214;-89
2022/11/20 05:48:06;;;;;;;6.53;5.83;;;0.80;91.40;;;;;;5054593;28;20195;-89
2022/11/20 05:50:31;;;;;;;7.53;5.73;;;0.80;91.40;;;;;;5055933;28;20182;-88
2022/11/20 05:53:00;;;;;;;12.77;6.13;;;0.80;91.30;;;;;;5054381;28;20218;-89
2022/11/20 05:55:27;;;;;;;6.83;5.77;;;0.80;91.30;;;;;;5056218;28;20206;-89
2022/11/20 05:57:54;;;;;;;11.97;6.17;;;0.80;91.30;;;;;;5055527;28;20181;-89
2022/11/20 06:00:20;;;;;;;9.60;5.83;;;0.80;91.30;;;;;;5054729;28;20186;-89
2022/11/20 06:02:45;;;;;;;7.30;5.80;;;0.80;91.30;;;;;;5054863;28;20213;-89
2022/11/20 06:05:11;;;;;;;7.57;5.40;;;0.80;91.30;;;;;;5054127;28;20261;-89
2022/11/20 06:07:36;;;;;;;6.17;5.57;;;0.80;91.30;;;;;;5056004;28;20183;-89
2022/11/20 06:10:03;;;;;;;9.20;5.63;;;0.80;91.30;;;;;;5055230;28;20267;-89
2022/11/20 06:12:30;;;;;;;9.57;6.10;;;0.80;91.30;;;;;;5055491;28;20183;-89
2022/11/20 06:14:56;;;;;;;9.53;6.10;;;0.80;91.30;;;;;;5053443;28;20290;-89
2022/11/20 06:17:21;;;;;;;7.00;5.57;;;0.80;91.30;;;;;;5054130;28;20266;-90
2022/11/20 06:19:47;;;;;;;8.07;5.87;;;0.80;91.30;;;;;;5053494;28;20215;-89
2022/11/20 06:22:12;;;;;;;7.87;6.30;;;0.80;91.40;;;;;;5053318;28;20195;-89
2022/11/20 06:24:38;;;;;;;9.60;6.47;;;0.80;91.50;;;;;;5052722;28;20211;-90
2022/11/20 06:27:03;;;;;;;13.87;6.67;;;0.80;91.50;;;;;;5052897;28;20175;-89
2022/11/20 06:29:29;;;;;;;10.40;6.00;;;0.80;91.50;;;;;;5052808;28;20174;-89
2022/11/20 06:31:54;;;;;;;7.93;5.57;;;0.90;91.60;;;;;;5052680;28;20260;-89
2022/11/20 06:34:20;;;;;;;7.07;5.97;;;0.90;91.60;;;;;;5052615;28;20563;-90
2022/11/20 06:36:45;;;;;;;12.13;6.73;;;0.90;91.60;;;;;;5054250;28;20177;-89
2022/11/20 06:39:11;;;;;;;8.73;5.83;;;0.90;91.60;;;;;;5052651;28;20182;-89
2022/11/20 06:41:36;;;;;;;11.40;6.87;;;0.90;91.60;;;;;;5052513;28;20266;-89
2022/11/20 06:44:05;;;;;;;7.37;6.43;;;0.90;91.60;;;;;;5052393;28;20213;-89
2022/11/20 06:46:31;;;;;;;7.27;6.53;;;0.90;91.60;;;;;;5052924;28;20281;-89
2022/11/20 06:48:58;;;;;;;11.77;6.53;;;0.90;91.60;;;;;;5053740;28;20169;-89
2022/11/20 06:51:23;;;;;;;13.37;7.00;;;0.90;91.60;;;;;;5052411;28;20646;-89
2022/11/20 06:53:49;;;;;;;8.30;6.03;;;1.00;91.60;;;;;;5052060;28;20180;-89
2022/11/20 06:56:14;;;;;;;18.00;5.80;;;1.00;91.50;;;;;;5052033;28;20210;-89
2022/11/20 06:58:40;;;;;;;6.87;5.90;;;1.10;91.60;;;;;;5052226;28;20187;-89
2022/11/20 07:01:08;;;;;;;7.17;5.60;;;1.10;91.60;;;;;;5053169;28;20186;-89
2022/11/20 07:03:34;;;;;;;7.87;5.93;;;1.10;91.50;;;;;;5052031;28;20230;-89
2022/11/20 07:06:01;;;;;;;8.63;5.70;;;1.20;91.50;;;;;;5052069;28;20572;-89
2022/11/20 07:08:27;;;;;;;8.30;6.07;;;1.10;91.40;;;;;;5052142;28;20187;-89
2022/11/20 07:10:56;;;;;;;6.87;6.17;;;1.10;91.50;;;;;;5052401;28;20549;-89
2022/11/20 07:13:22;;;;;;;7.90;5.70;;;1.10;91.50;;;;;;5052011;28;20183;-89
2022/11/20 07:15:47;;;;;;;13.07;6.10;;;1.20;91.50;;;;;;5051854;28;20677;-89
2022/11/20 07:18:13;;;;;;;6.40;5.53;;;1.20;91.50;;;;;;5051910;28;20193;-89
2022/11/20 07:20:38;;;;;;;6.87;5.60;;;1.30;91.50;;;;;;5051994;28;20193;-89
2022/11/20 07:23:04;;;;;;;10.77;5.40;;;1.20;91.30;;;;;;5053035;28;20206;-89
2022/11/20 07:25:30;;;;;;;6.97;5.43;;;1.10;91.40;;;;;;5051707;28;20226;-89
2022/11/20 07:27:59;;;;;;;8.50;5.87;;;1.20;91.40;;;;;;5052153;28;20643;-89
2022/11/20 07:30:28;;;;;;;8.10;5.47;;;1.20;91.40;;;;;;5051743;28;20182;-89
2022/11/20 07:32:56;;;;;;;9.40;5.57;;;1.20;91.40;;;;;;5053058;28;20168;-89
2022/11/20 07:35:22;;;;;;;6.27;5.60;;;1.20;91.30;;;;;;5051877;28;20302;-89
2022/11/20 07:37:48;;;;;;;6.60;5.80;;;1.20;91.30;;;;;;5052170;28;20696;-86
2022/11/20 07:40:17;;;;;;;7.87;5.33;;;1.20;91.30;;;;;;5053275;28;20168;-88
2022/11/20 07:42:50;;;;;;;5.77;5.27;;;1.20;91.30;;;;;;5051867;28;20281;-88
2022/11/20 07:45:17;;;;;;;6.50;5.47;;;1.10;91.20;;;;;;5052687;28;20305;-88
2022/11/20 07:47:43;;;;;;;6.97;5.67;;;1.20;91.20;;;;;;5051756;28;20262;-89
2022/11/20 07:50:09;;;;;;;6.37;5.73;;;1.20;91.20;;;;;;5051762;28;20199;-89
2022/11/20 07:52:34;;;;;;;6.20;5.60;;;1.20;91.10;;;;;;5052975;28;20172;-89
2022/11/20 07:55:00;;;;;;;7.50;5.87;;;1.20;91.20;;;;;;5051466;28;20202;-89
2022/11/20 07:57:25;;;;;;;6.50;5.73;;;1.30;91.10;;;;;;5051587;28;20180;-89
2022/11/20 07:59:51;;;;;;;6.93;6.10;;;1.30;91.10;;;;;;5051636;28;20673;-89
2022/11/20 08:02:16;;;;;;;6.93;6.10;;;1.30;91.00;;;;;;5051575;28;20530;-89
2022/11/20 08:04:42;;;;;;;6.77;5.93;;;1.30;91.00;;;;;;5053670;28;20249;-90
2022/11/20 08:07:07;;;;;;;7.33;5.70;;;1.40;91.00;;;;;;5055331;28;20233;-89
2022/11/20 08:09:33;;;;;;;6.27;5.57;;;1.40;90.90;;;;;;5055299;28;20170;-89
2022/11/20 08:14:42;;;;;;;6.60;5.87;;;1.40;90.80;;;;;;5056710;28;20199;-90
2022/11/20 08:17:08;;;;;;;6.90;6.00;;;1.50;90.70;;;;;;5055120;28;20176;-89
2022/11/20 08:19:33;;;;;;;8.43;6.27;;;1.50;90.70;;;;;;5056157;28;20234;-89
2022/11/20 08:21:59;;;;;;;21.87;6.50;;;1.50;90.60;;;;;;5056283;28;20297;-89
2022/11/20 08:24:26;;;;;;;6.40;5.83;;;1.50;90.60;;;;;;5054812;28;20298;-89
2022/11/20 08:26:51;;;;;;;6.73;6.13;;;1.50;90.50;;;;;;5054972;28;20595;-89
2022/11/20 08:29:17;;;;;;;6.93;6.23;;;1.50;90.50;;;;;;5056155;28;20176;-89
2022/11/20 08:31:43;;;;;;;7.37;5.73;;;1.60;90.50;;;;;;5054923;28;20653;-89
2022/11/20 08:34:08;;;;;;;6.40;5.83;;;1.60;90.60;;;;;;5055947;28;20195;-89
2022/11/20 08:36:34;;;;;;;7.50;6.67;;;1.60;90.40;;;;;;5054773;28;20244;-89
2022/11/20 08:39:00;;;;;;;9.87;6.03;;;1.60;90.30;;;;;;5054999;28;20189;-89
2022/11/20 08:41:30;;;;;;;6.27;5.67;;;1.60;90.30;;;;;;5054728;28;20178;-89
2022/11/20 08:43:58;;;;;;;7.67;5.93;;;1.70;90.30;;;;;;5054939;28;20214;-89
2022/11/20 08:46:26;;;;;;;6.40;5.90;;;1.70;90.30;;;;;;5054854;28;20202;-89
2022/11/20 08:48:51;;;;;;;6.07;5.47;;;1.70;90.30;;;;;;5054621;28;20186;-89
2022/11/20 08:51:17;;;;;;;7.27;5.70;;;1.70;90.20;;;;;;5054648;28;20266;-89
2022/11/20 08:53:43;;;;;;;5.93;4.97;;;1.70;90.20;;;;;;5056008;28;20172;-90
2022/11/20 08:56:09;;;;;;;5.60;5.10;;;1.80;90.20;;;;;;5055540;28;20548;-89
2022/11/20 08:58:35;;;;;;;8.53;5.90;;;1.80;90.20;;;;;;5054654;28;20179;-89
2022/11/20 09:01:01;;;;;;;8.00;5.30;;;1.80;90.20;;;;;;5054406;28;20176;-89
2022/11/20 09:03:27;;;;;;;6.87;5.90;;;1.80;90.20;;;;;;5054594;28;20179;-89
2022/11/20 09:06:05;;;;;;;5.67;5.17;;;1.80;90.10;;;;;;5054378;28;20219;-89
2022/11/20 09:08:31;;;;;;;5.80;5.20;;;1.90;90.10;;;;;;5055460;28;20178;-89
2022/11/20 09:10:58;;;;;;;6.17;5.57;;;1.90;90.00;;;;;;5054594;28;20176;-88
2022/11/20 09:13:25;;;;;;;5.87;5.37;;;1.90;90.00;;;;;;5054304;28;20176;-88
2022/11/20 09:15:56;;;;;;;5.70;5.20;;;1.80;89.80;;;;;;5053931;28;20203;-89
2022/11/20 09:18:22;;;;;;;5.97;5.37;;;1.80;89.70;;;;;;5054374;28;20307;-88
2022/11/20 09:20:48;;;;;;;5.53;5.03;;;1.80;89.70;;;;;;5055209;28;20222;-87
2022/11/20 09:23:14;;;;;;;6.00;5.50;;;1.70;89.60;;;;;;5053865;28;20186;-88
2022/11/20 09:25:40;;;;;;;7.03;6.33;;;1.70;89.70;;;;;;5055182;28;20218;-88
2022/11/20 09:28:05;;;;;;;6.13;5.53;;;1.70;89.70;;;;;;5053792;28;20717;-89
2022/11/20 09:30:31;;;;;;;7.10;6.10;;;1.70;89.80;;;;;;5054063;28;20179;-89
2022/11/20 09:32:56;;;;;;;6.13;5.53;;;1.80;89.80;;;;;;5053655;28;20232;-89
2022/11/20 09:35:22;;;;;;;6.40;5.90;;;1.80;89.70;;;;;;5053549;28;20590;-89
2022/11/20 09:37:48;;;;;;;5.67;5.23;;;1.90;89.80;;;;;;5053621;28;20184;-89
2022/11/20 09:40:26;;;;;;;6.67;6.07;;;1.90;89.60;;;;;;5053871;28;20657;-89
2022/11/20 09:43:01;;;;;;;8.60;5.87;;;2.00;89.50;;;;;;5053635;28;20172;-89
2022/11/20 09:46:01;;;;;;;5.97;5.40;;;2.10;89.50;;;;;;5053351;28;20222;-89
2022/11/20 09:49:19;;;;;;;6.10;5.57;;;2.20;89.40;;;;;;5053446;28;20195;-89
2022/11/20 09:51:59;;;;;;;6.17;5.53;;;2.30;89.30;;;;;;5021108;28;20198;-89
2022/11/20 09:54:38;;;;;;;6.03;5.43;;;2.40;89.20;;;;;;5053238;28;20188;-89
2022/11/20 09:57:09;;;;;;;6.37;5.70;;;2.60;89.10;;;;;;5053532;28;20179;-89
2022/11/20 09:59:37;;;;;;;6.37;5.77;;;2.80;89.00;;;;;;5053797;28;20243;-89
2022/11/20 10:02:19;;;;;;;5.97;5.50;;;2.80;88.60;;;;;;5053130;28;20279;-89
2022/11/20 10:05:04;;;;;;;6.47;5.87;;;2.90;88.30;;;;;;5054214;28;20222;-89
2022/11/20 10:07:40;;;;;;;7.03;5.80;;;2.80;88.10;;;;;;5053714;28;20222;-89
2022/11/20 10:10:15;;;;;;;7.23;6.57;;;3.00;88.20;;;;;;5053931;28;20517;-89
2022/11/20 10:13:01;;;;;;;9.27;6.90;;;3.10;88.30;;;;;;5053660;28;20183;-89
2022/11/20 10:15:36;;;;;;;5.97;5.40;;;3.20;87.80;;;;;;5052775;28;20580;-89
2022/11/20 10:18:40;;;;;;;6.40;5.43;;;3.20;87.40;;;;;;5053889;28;20176;-90
2022/11/20 10:21:22;;;;;;;6.27;5.77;;;3.30;87.10;;;;;;5023199;28;20196;-87
2022/11/20 10:24:10;;;;;;;6.90;5.93;;;3.40;87.10;;;;;;5054318;28;20223;-87
2022/11/20 10:26:49;;;;;;;6.93;6.27;;;3.40;87.00;;;;;;5052676;28;20196;-89
2022/11/20 10:29:17;;;;;;;7.53;6.30;;;3.40;86.80;;;;;;5053517;28;20514;-89
2022/11/20 10:31:51;;;;;;;8.77;6.13;;;3.20;86.50;;;;;;5052656;28;20176;-89
2022/11/20 10:34:30;;;;;;;6.37;5.33;;;3.30;86.80;;;;;;5052761;28;20196;-89
2022/11/20 10:37:19;;;;;;;7.10;6.43;;;3.30;86.70;;;;;;5052603;28;20243;-88
2022/11/20 10:40:05;;;;;;;7.40;6.63;;;3.30;86.80;;;;;;5038497;28;20189;-89
2022/11/20 10:42:50;;;;;;;7.20;6.50;;;3.50;86.90;;;;;;5052470;28;20232;-89
2022/11/20 10:45:25;;;;;;;7.27;6.20;;;3.50;86.80;;;;;;5052379;28;20294;-89
2022/11/20 10:48:16;;;;;;;6.47;5.87;;;3.50;86.70;;;;;;5053205;28;20295;-89
2022/11/20 10:50:54;;;;;;;6.03;5.53;;;3.50;86.40;;;;;;5052117;28;20211;-89
2022/11/20 10:53:45;;;;;;;6.77;5.40;;;3.30;85.90;;;;;;5052311;28;20183;-89
2022/11/20 10:56:30;;;;;;;6.80;6.20;;;3.30;85.50;;;;;;5052243;28;20620;-88
2022/11/20 10:59:26;;;;;;;6.37;5.60;;;3.20;85.50;;;;;;5052589;28;20177;-88
2022/11/20 11:01:52;;;;;;;5.97;5.47;;;3.20;85.70;;;;;;5052206;28;20207;-89
2022/11/20 11:04:36;;;;;;;6.60;5.90;;;3.10;85.50;;;;;;5052585;28;20235;-88
2022/11/20 11:07:12;;;;;;;6.77;5.23;;;3.20;85.40;;;;;;5053263;28;20171;-89
2022/11/20 11:09:43;;;;;;;6.37;5.80;;;3.30;85.20;;;;;;5052068;28;20176;-88
2022/11/20 11:12:10;;;;;;;10.60;5.70;;;3.40;85.10;;;;;;5052093;28;20627;-89
2022/11/20 11:14:48;;;;;;;6.30;5.70;;;3.60;84.90;;;;;;5051915;28;20660;-90
2022/11/20 11:17:31;;;;;;;6.20;5.60;;;3.60;83.90;;;;;;5052030;28;20261;-88
2022/11/20 11:20:01;;;;;;;5.80;5.30;;;3.50;83.30;;;;;;5053103;28;20178;-89
2022/11/20 11:22:29;;;;;;;7.27;6.13;;;3.50;83.30;;;;;;5052904;28;20193;-90
2022/11/20 11:24:55;;;;;;;12.53;6.03;;;3.60;83.30;;;;;;5051666;28;20234;-90
2022/11/20 11:27:21;;;;;;;6.13;5.53;;;3.60;83.10;;;;;;5051881;28;20174;-88
2022/11/20 11:29:46;;;;;;;8.37;6.17;;;4.00;83.90;;;;;;5053253;28;20188;-88
2022/11/20 11:32:21;;;;;;;9.87;5.60;;;4.20;84.10;;;;;;5055667;28;20179;-88
2022/11/20 11:35:06;;;;;;;7.97;6.10;;;4.20;83.40;;;;;;5054085;28;20210;-88
2022/11/20 11:37:37;;;;;;;5.67;5.20;;;4.30;82.60;;;;;;5052930;28;20533;-89
2022/11/20 11:40:05;;;;;;;6.37;5.50;;;4.60;83.20;;;;;;5054951;28;20175;-89
2022/11/20 11:42:31;;;;;;;6.13;5.57;;;4.60;82.30;;;;;;5055935;28;20186;-89
2022/11/20 11:45:05;;;;;;;7.10;6.37;;;4.60;81.60;;;;;;5055665;28;20210;-89
2022/11/20 11:47:37;;;;;;;7.43;6.30;;;4.70;82.00;;;;;;5056387;28;20180;-88
2022/11/20 11:50:09;;;;;;;6.27;5.67;;;4.90;81.90;;;;;;5056139;28;20182;-88
2022/11/20 11:53:06;;;;;;;6.23;5.73;;;5.10;81.90;;;;;;5055687;28;20217;-89
2022/11/20 11:55:45;;;;;;;6.40;5.90;;;5.40;81.30;;;;;;5028233;28;20204;-88
2022/11/20 11:58:42;;;;;;;6.63;6.13;;;5.40;80.40;;;;;;5055526;28;20522;-89
2022/11/20 12:01:36;;;;;;;6.40;5.90;;;5.10;78.40;;;;;;5049768;28;20188;-88
2022/11/20 12:04:25;;;;;;;7.73;6.10;;;4.70;78.80;;;;;;5055375;28;20637;-89
2022/11/20 12:07:03;;;;;;;6.80;6.30;;;4.60;80.10;;;;;;5055469;28;20649;-89
2022/11/20 12:09:38;;;;;;;6.50;6.00;;;4.30;79.60;;;;;;5055381;28;20213;-89
2022/11/20 12:12:19;;;;;;;6.93;6.33;;;4.30;80.50;;;;;;5056869;28;20153;-89
2022/11/20 12:14:49;;;;;;;6.50;6.00;;;4.40;81.20;;;;;;5055875;28;20766;-89
2022/11/20 12:17:15;;;;;;;6.63;6.10;;;4.30;80.90;;;;;;5055442;28;20171;-88
2022/11/20 12:19:41;;;;;;;6.70;6.10;;;4.20;80.50;;;;;;5055144;28;20220;-88
2022/11/20 12:22:33;;;;;;;8.30;6.30;;;4.30;80.90;;;;;;5055355;28;20181;-88
2022/11/20 12:25:20;;;;;;;7.00;6.40;;;4.30;80.80;;;;;;5055199;28;20305;-89
2022/11/20 12:27:59;;;;;;;8.13;6.10;;;4.20;80.60;;;;;;5055176;28;20601;-88
2022/11/20 12:30:24;;;;;;;7.90;6.87;;;4.40;80.80;;;;;;5056705;28;20163;-88
2022/11/20 12:33:05;;;;;;;7.03;6.53;;;4.50;80.20;;;;;;5054923;28;20176;-88
2022/11/20 12:35:55;;;;;;;6.50;6.00;;;4.80;80.90;;;;;;5055138;28;20229;-88
2022/11/20 12:38:39;;;;;;;6.90;6.40;;;5.10;81.40;;;;;;5055278;28;20656;-87
2022/11/20 12:45:25;;;;;;;7.00;6.40;;;4.80;79.50;;;;;;4999368;28;20263;-89
2022/11/20 12:48:00;;;;;;;7.70;5.83;;;4.80;80.00;;;;;;5055869;28;20172;-89
2022/11/20 12:50:46;;;;;;;6.00;5.60;;;4.60;80.20;;;;;;5054039;28;20210;-89
2022/11/20 12:53:39;;;;;;;6.43;5.83;;;4.30;80.80;;;;;;5054675;28;20221;-90
2022/11/20 12:56:21;;;;;;;6.70;6.17;;;4.60;81.30;;;;;;5055108;28;20756;-88
2022/11/20 12:59:18;;;;;;;6.37;5.83;;;4.40;80.60;;;;;;5054858;28;20211;-89
2022/11/20 13:02:05;;;;;;;6.07;5.63;;;4.50;80.90;;;;;;5054715;28;20202;-88
2022/11/20 13:04:33;;;;;;;5.87;5.47;;;4.50;81.00;;;;;;5054558;28;20211;-88
2022/11/20 13:07:05;;;;;;;6.27;5.63;;;4.70;81.20;;;;;;5054494;28;20179;-88
2022/11/20 13:09:33;;;;;;;6.33;5.83;;;4.80;80.60;;;;;;5054898;28;20172;-88
2022/11/20 13:12:17;;;;;;;6.27;5.23;;;4.50;79.90;;;;;;5056621;28;20175;-88
2022/11/20 13:14:51;;;;;;;6.07;5.57;;;4.40;79.50;;;;;;5054996;28;20566;-88
2022/11/20 13:17:35;;;;;;;5.87;5.37;;;4.20;79.40;;;;;;5055074;28;20596;-88
2022/11/20 13:20:05;;;;;;;6.10;4.70;;;4.20;79.50;;;;;;5056507;28;20178;-88
2022/11/20 13:22:47;;;;;;;5.17;4.70;;;4.10;79.90;;;;;;5054717;28;20178;-89
2022/11/20 13:25:34;;;;;;;5.47;5.00;;;4.00;80.20;;;;;;5054680;28;20215;-88